sensor_id;sensor_type;location;lat;lon;timestamp;temperature;humidity
38209;DHT22;24016;52.102;11.584;2023-11-22T00:01:58;-0.80;99.90
38209;DHT22;24016;52.102;11.584;2023-11-22T00:04:24;-0.90;99.90
38209;DHT22;24016;52.102;11.584;2023-11-22T00:06:50;-0.90;99.90
38209;DHT22;24016;52.102;11.584;2023-11-22T00:09:15;-0.90;99.90
38209;DHT22;24016;52.102;11.584;2023-11-22T00:11:41;-1.00;99.90
38209;DHT22;24016;52.102;11.584;2023-11-22T00:14:07;-1.00;99.90
38209;DHT22;24016;52.102;11.584;2023-11-22T00:16:32;-1.00;99.90
38209;DHT22;24016;52.102;11.584;2023-11-22T00:18:59;-1.00;99.90
38209;DHT22;24016;52.102;11.584;2023-11-22T00:21:25;-1.10;99.90
38209;DHT22;24016;52.102;11.584;2023-11-22T00:23:51;-1.10;99.90
38209;DHT22;24016;52.102;11.584;2023-11-22T00:26:16;-1.20;99.90
38209;DHT22;24016;52.102;11.584;2023-11-22T00:28:42;-1.30;99.90
38209;DHT22;24016;52.102;11.584;2023-11-22T00:31:07;-1.30;99.90
38209;DHT22;24016;52.102;11.584;2023-11-22T00:33:33;-1.30;99.90
38209;DHT22;24016;52.102;11.584;2023-11-22T00:36:00;-1.40;99.90
38209;DHT22;24016;52.102;11.584;2023-11-22T00:38:29;-1.40;99.90
38209;DHT22;24016;52.102;11.584;2023-11-22T00:40:55;-1.40;99.90
38209;DHT22;24016;52.102;11.584;2023-11-22T00:43:22;-1.40;99.90
38209;DHT22;24016;52.102;11.584;2023-11-22T00:45:47;-1.40;99.90
38209;DHT22;24016;52.102;11.584;2023-11-22T00:48:13;-1.50;99.90
38209;DHT22;24016;52.102;11.584;2023-11-22T00:50:38;-1.50;99.90
38209;DHT22;24016;52.102;11.584;2023-11-22T00:53:04;-1.50;99.90
38209;DHT22;24016;52.102;11.584;2023-11-22T00:55:29;-1.60;99.90
38209;DHT22;24016;52.102;11.584;2023-11-22T00:57:55;-1.60;99.90
38209;DHT22;24016;52.102;11.584;2023-11-22T01:00:26;-1.60;99.90
38209;DHT22;24016;52.102;11.584;2023-11-22T01:02:51;-1.70;99.90
38209;DHT22;24016;52.102;11.584;2023-11-22T01:05:17;-1.70;99.90
38209;DHT22;24016;52.102;11.584;2023-11-22T01:07:43;-1.70;99.90
38209;DHT22;24016;52.102;11.584;2023-11-22T01:10:09;-1.70;99.90
38209;DHT22;24016;52.102;11.584;2023-11-22T01:12:35;-1.70;99.90
38209;DHT22;24016;52.102;11.584;2023-11-22T01:15:01;-1.80;99.90
38209;DHT22;24016;52.102;11.584;2023-11-22T01:17:26;-1.80;99.90
38209;DHT22;24016;52.102;11.584;2023-11-22T01:19:52;-1.80;99.90
38209;DHT22;24016;52.102;11.584;2023-11-22T01:22:18;-1.90;99.90
38209;DHT22;24016;52.102;11.584;2023-11-22T01:24:45;-1.90;99.90
38209;DHT22;24016;52.102;11.584;2023-11-22T01:27:10;-2.00;99.90
38209;DHT22;24016;52.102;11.584;2023-11-22T01:29:36;-2.00;99.90
38209;DHT22;24016;52.102;11.584;2023-11-22T01:32:01;-2.00;99.90
38209;DHT22;24016;52.102;11.584;2023-11-22T01:34:28;-2.00;99.90
38209;DHT22;24016;52.102;11.584;2023-11-22T01:36:54;-2.00;99.90
38209;DHT22;24016;52.102;11.584;2023-11-22T01:39:20;-2.10;99.90
38209;DHT22;24016;52.102;11.584;2023-11-22T01:41:46;-2.10;99.90
38209;DHT22;24016;52.102;11.584;2023-11-22T01:44:15;-2.10;99.90
38209;DHT22;24016;52.102;11.584;2023-11-22T01:46:41;-2.10;99.90
38209;DHT22;24016;52.102;11.584;2023-11-22T01:49:09;-2.10;99.90
38209;DHT22;24016;52.102;11.584;2023-11-22T01:51:35;-2.10;99.90
38209;DHT22;24016;52.102;11.584;2023-11-22T01:54:01;-2.20;99.90
38209;DHT22;24016;52.102;11.584;2023-11-22T01:56:27;-2.20;99.90
38209;DHT22;24016;52.102;11.584;2023-11-22T01:58:55;-2.30;99.90
38209;DHT22;24016;52.102;11.584;2023-11-22T02:01:22;-2.30;99.90
38209;DHT22;24016;52.102;11.584;2023-11-22T02:03:47;-2.30;99.90
38209;DHT22;24016;52.102;11.584;2023-11-22T02:06:15;-2.30;99.90
38209;DHT22;24016;52.102;11.584;2023-11-22T02:08:42;-2.40;99.90
38209;DHT22;24016;52.102;11.584;2023-11-22T02:11:08;-2.50;99.90
38209;DHT22;24016;52.102;11.584;2023-11-22T02:13:33;-2.50;99.90
38209;DHT22;24016;52.102;11.584;2023-11-22T02:15:59;-2.50;99.90
38209;DHT22;24016;52.102;11.584;2023-11-22T02:18:27;-2.50;99.90
38209;DHT22;24016;52.102;11.584;2023-11-22T02:20:52;-2.50;99.90
38209;DHT22;24016;52.102;11.584;2023-11-22T02:23:19;-2.50;99.90
38209;DHT22;24016;52.102;11.584;2023-11-22T02:25:44;-2.50;99.90
38209;DHT22;24016;52.102;11.584;2023-11-22T02:28:13;-2.50;99.90
38209;DHT22;24016;52.102;11.584;2023-11-22T02:33:14;-2.50;99.90
38209;DHT22;24016;52.102;11.584;2023-11-22T02:35:40;-2.40;99.90
38209;DHT22;24016;52.102;11.584;2023-11-22T02:38:07;-2.40;99.90
38209;DHT22;24016;52.102;11.584;2023-11-22T02:40:37;-2.40;99.90
38209;DHT22;24016;52.102;11.584;2023-11-22T02:43:02;-2.30;99.90
38209;DHT22;24016;52.102;11.584;2023-11-22T02:45:34;-2.30;99.90
38209;DHT22;24016;52.102;11.584;2023-11-22T02:48:00;-2.40;99.90
38209;DHT22;24016;52.102;11.584;2023-11-22T02:50:29;-2.40;99.90
38209;DHT22;24016;52.102;11.584;2023-11-22T02:52:59;-2.40;99.90
38209;DHT22;24016;52.102;11.584;2023-11-22T02:55:25;-2.50;99.90
38209;DHT22;24016;52.102;11.584;2023-11-22T02:57:51;-2.40;99.90
38209;DHT22;24016;52.102;11.584;2023-11-22T03:00:17;-2.40;99.90
38209;DHT22;24016;52.102;11.584;2023-11-22T03:02:46;-2.40;99.90
38209;DHT22;24016;52.102;11.584;2023-11-22T03:05:13;-2.40;99.90
38209;DHT22;24016;52.102;11.584;2023-11-22T03:07:40;-2.40;99.90
38209;DHT22;24016;52.102;11.584;2023-11-22T03:10:07;-2.40;99.90
38209;DHT22;24016;52.102;11.584;2023-11-22T03:12:35;-2.30;99.90
38209;DHT22;24016;52.102;11.584;2023-11-22T03:15:03;-2.30;99.90
38209;DHT22;24016;52.102;11.584;2023-11-22T03:17:29;-2.40;99.90
38209;DHT22;24016;52.102;11.584;2023-11-22T03:19:56;-2.30;99.90
38209;DHT22;24016;52.102;11.584;2023-11-22T03:22:23;-2.30;99.90
38209;DHT22;24016;52.102;11.584;2023-11-22T03:24:49;-2.40;99.90
38209;DHT22;24016;52.102;11.584;2023-11-22T03:27:15;-2.40;99.90
38209;DHT22;24016;52.102;11.584;2023-11-22T03:29:40;-2.40;99.90
38209;DHT22;24016;52.102;11.584;2023-11-22T03:32:06;-2.20;99.90
38209;DHT22;24016;52.102;11.584;2023-11-22T03:34:31;-2.20;99.90
38209;DHT22;24016;52.102;11.584;2023-11-22T03:36:57;-2.20;99.90
38209;DHT22;24016;52.102;11.584;2023-11-22T03:39:23;-2.30;99.90
38209;DHT22;24016;52.102;11.584;2023-11-22T03:41:49;-2.30;99.90
38209;DHT22;24016;52.102;11.584;2023-11-22T03:44:16;-2.30;99.90
38209;DHT22;24016;52.102;11.584;2023-11-22T03:46:41;-2.40;99.90
38209;DHT22;24016;52.102;11.584;2023-11-22T03:49:07;-2.30;99.90
38209;DHT22;24016;52.102;11.584;2023-11-22T03:51:34;-2.30;99.90
38209;DHT22;24016;52.102;11.584;2023-11-22T03:54:00;-2.40;99.90
38209;DHT22;24016;52.102;11.584;2023-11-22T03:56:26;-2.40;99.90
38209;DHT22;24016;52.102;11.584;2023-11-22T03:58:51;-2.30;99.90
38209;DHT22;24016;52.102;11.584;2023-11-22T04:01:17;-2.30;99.90
38209;DHT22;24016;52.102;11.584;2023-11-22T04:03:44;-2.40;99.90
38209;DHT22;24016;52.102;11.584;2023-11-22T04:06:09;-2.40;99.90
38209;DHT22;24016;52.102;11.584;2023-11-22T04:08:35;-2.50;99.90
38209;DHT22;24016;52.102;11.584;2023-11-22T04:11:03;-2.50;99.90
38209;DHT22;24016;52.102;11.584;2023-11-22T04:13:28;-2.50;99.90
38209;DHT22;24016;52.102;11.584;2023-11-22T04:15:55;-2.60;99.90
38209;DHT22;24016;52.102;11.584;2023-11-22T04:18:20;-2.50;99.90
38209;DHT22;24016;52.102;11.584;2023-11-22T04:20:46;-2.60;99.90
38209;DHT22;24016;52.102;11.584;2023-11-22T04:23:13;-2.70;99.90
38209;DHT22;24016;52.102;11.584;2023-11-22T04:25:40;-2.70;99.90
38209;DHT22;24016;52.102;11.584;2023-11-22T04:28:07;-2.70;99.90
38209;DHT22;24016;52.102;11.584;2023-11-22T04:30:34;-2.70;99.90
38209;DHT22;24016;52.102;11.584;2023-11-22T04:33:02;-2.60;99.90
38209;DHT22;24016;52.102;11.584;2023-11-22T04:35:28;-2.60;99.90
38209;DHT22;24016;52.102;11.584;2023-11-22T04:37:53;-2.60;99.90
38209;DHT22;24016;52.102;11.584;2023-11-22T04:40:23;-2.60;99.90
38209;DHT22;24016;52.102;11.584;2023-11-22T04:42:51;-2.50;99.90
38209;DHT22;24016;52.102;11.584;2023-11-22T04:45:16;-2.50;99.90
38209;DHT22;24016;52.102;11.584;2023-11-22T04:47:42;-2.50;99.90
38209;DHT22;24016;52.102;11.584;2023-11-22T04:50:08;-2.50;99.90
38209;DHT22;24016;52.102;11.584;2023-11-22T04:52:35;-2.60;99.90
38209;DHT22;24016;52.102;11.584;2023-11-22T04:55:02;-2.50;99.90
38209;DHT22;24016;52.102;11.584;2023-11-22T04:57:27;-2.50;99.90
38209;DHT22;24016;52.102;11.584;2023-11-22T04:59:53;-2.30;99.90
38209;DHT22;24016;52.102;11.584;2023-11-22T05:02:19;-2.30;99.90
38209;DHT22;24016;52.102;11.584;2023-11-22T05:04:44;-2.30;99.90
38209;DHT22;24016;52.102;11.584;2023-11-22T05:07:14;-2.30;99.90
38209;DHT22;24016;52.102;11.584;2023-11-22T05:09:42;-2.40;99.90
38209;DHT22;24016;52.102;11.584;2023-11-22T05:12:11;-2.40;99.90
38209;DHT22;24016;52.102;11.584;2023-11-22T05:14:37;-2.30;99.90
38209;DHT22;24016;52.102;11.584;2023-11-22T05:17:04;-2.30;99.90
38209;DHT22;24016;52.102;11.584;2023-11-22T05:19:30;-2.30;99.90
38209;DHT22;24016;52.102;11.584;2023-11-22T05:21:58;-2.30;99.90
38209;DHT22;24016;52.102;11.584;2023-11-22T05:24:23;-2.30;99.90
38209;DHT22;24016;52.102;11.584;2023-11-22T05:26:49;-2.20;99.90
38209;DHT22;24016;52.102;11.584;2023-11-22T05:29:15;-2.20;99.90
38209;DHT22;24016;52.102;11.584;2023-11-22T05:31:41;-2.20;99.90
38209;DHT22;24016;52.102;11.584;2023-11-22T05:34:07;-2.10;99.90
38209;DHT22;24016;52.102;11.584;2023-11-22T05:36:32;-2.20;99.90
38209;DHT22;24016;52.102;11.584;2023-11-22T05:38:58;-2.30;99.90
38209;DHT22;24016;52.102;11.584;2023-11-22T05:41:29;-2.30;99.90
38209;DHT22;24016;52.102;11.584;2023-11-22T05:43:55;-2.30;99.90
38209;DHT22;24016;52.102;11.584;2023-11-22T05:46:22;-2.30;99.90
38209;DHT22;24016;52.102;11.584;2023-11-22T05:48:56;-2.20;99.90
38209;DHT22;24016;52.102;11.584;2023-11-22T05:51:22;-2.20;99.90
38209;DHT22;24016;52.102;11.584;2023-11-22T05:53:48;-2.20;99.90
38209;DHT22;24016;52.102;11.584;2023-11-22T05:56:13;-2.20;99.90
38209;DHT22;24016;52.102;11.584;2023-11-22T05:58:40;-2.20;99.90
38209;DHT22;24016;52.102;11.584;2023-11-22T06:01:06;-2.20;99.90
38209;DHT22;24016;52.102;11.584;2023-11-22T06:03:32;-2.20;99.90
38209;DHT22;24016;52.102;11.584;2023-11-22T06:05:58;-2.30;99.90
38209;DHT22;24016;52.102;11.584;2023-11-22T06:08:23;-2.30;99.90
38209;DHT22;24016;52.102;11.584;2023-11-22T06:10:50;-2.30;99.90
38209;DHT22;24016;52.102;11.584;2023-11-22T06:13:18;-2.30;99.90
38209;DHT22;24016;52.102;11.584;2023-11-22T06:15:44;-2.30;99.90
38209;DHT22;24016;52.102;11.584;2023-11-22T06:18:10;-2.30;99.90
38209;DHT22;24016;52.102;11.584;2023-11-22T06:20:35;-2.30;99.90
38209;DHT22;24016;52.102;11.584;2023-11-22T06:23:01;-2.30;99.90
38209;DHT22;24016;52.102;11.584;2023-11-22T06:25:27;-2.40;99.90
38209;DHT22;24016;52.102;11.584;2023-11-22T06:27:53;-2.40;99.90
38209;DHT22;24016;52.102;11.584;2023-11-22T06:30:18;-2.50;99.90
38209;DHT22;24016;52.102;11.584;2023-11-22T06:32:44;-2.60;99.90
38209;DHT22;24016;52.102;11.584;2023-11-22T06:35:10;-2.50;99.90
38209;DHT22;24016;52.102;11.584;2023-11-22T06:37:40;-2.50;99.90
38209;DHT22;24016;52.102;11.584;2023-11-22T06:40:06;-2.50;99.90
38209;DHT22;24016;52.102;11.584;2023-11-22T06:42:32;-2.50;99.90
38209;DHT22;24016;52.102;11.584;2023-11-22T06:44:59;-2.60;99.90
38209;DHT22;24016;52.102;11.584;2023-11-22T06:47:26;-2.50;99.90
38209;DHT22;24016;52.102;11.584;2023-11-22T06:49:53;-2.50;99.90
38209;DHT22;24016;52.102;11.584;2023-11-22T06:52:18;-2.60;99.90
38209;DHT22;24016;52.102;11.584;2023-11-22T06:54:44;-2.60;99.90
38209;DHT22;24016;52.102;11.584;2023-11-22T06:57:10;-2.50;99.90
38209;DHT22;24016;52.102;11.584;2023-11-22T06:59:35;-2.60;99.90
38209;DHT22;24016;52.102;11.584;2023-11-22T07:02:01;-2.60;99.90
38209;DHT22;24016;52.102;11.584;2023-11-22T07:04:26;-2.50;99.90
38209;DHT22;24016;52.102;11.584;2023-11-22T07:06:53;-2.40;99.90
38209;DHT22;24016;52.102;11.584;2023-11-22T07:09:18;-2.40;99.90
38209;DHT22;24016;52.102;11.584;2023-11-22T07:11:46;-2.50;99.90
38209;DHT22;24016;52.102;11.584;2023-11-22T07:14:12;-2.50;99.90
38209;DHT22;24016;52.102;11.584;2023-11-22T07:16:38;-2.60;99.90
38209;DHT22;24016;52.102;11.584;2023-11-22T07:19:04;-2.70;99.90
38209;DHT22;24016;52.102;11.584;2023-11-22T07:21:32;-2.50;99.90
38209;DHT22;24016;52.102;11.584;2023-11-22T07:23:58;-2.50;99.90
38209;DHT22;24016;52.102;11.584;2023-11-22T07:26:28;-2.50;99.90
38209;DHT22;24016;52.102;11.584;2023-11-22T07:28:53;-2.50;99.90
38209;DHT22;24016;52.102;11.584;2023-11-22T07:31:19;-2.40;99.90
38209;DHT22;24016;52.102;11.584;2023-11-22T07:33:46;-2.40;99.90
38209;DHT22;24016;52.102;11.584;2023-11-22T07:36:12;-2.40;99.90
38209;DHT22;24016;52.102;11.584;2023-11-22T07:38:41;-2.30;99.90
38209;DHT22;24016;52.102;11.584;2023-11-22T07:41:09;-2.20;99.90
38209;DHT22;24016;52.102;11.584;2023-11-22T07:43:36;-2.00;99.90
38209;DHT22;24016;52.102;11.584;2023-11-22T07:46:06;-1.90;99.90
38209;DHT22;24016;52.102;11.584;2023-11-22T07:48:34;-1.70;99.90
38209;DHT22;24016;52.102;11.584;2023-11-22T07:51:03;-1.60;99.90
38209;DHT22;24016;52.102;11.584;2023-11-22T07:53:28;-1.50;99.90
38209;DHT22;24016;52.102;11.584;2023-11-22T07:55:55;-1.40;99.90
38209;DHT22;24016;52.102;11.584;2023-11-22T07:58:22;-1.40;99.90
38209;DHT22;24016;52.102;11.584;2023-11-22T08:00:48;-1.30;99.90
38209;DHT22;24016;52.102;11.584;2023-11-22T08:03:14;-1.30;99.90
38209;DHT22;24016;52.102;11.584;2023-11-22T08:05:43;-1.20;99.90
38209;DHT22;24016;52.102;11.584;2023-11-22T08:08:13;-1.30;99.90
38209;DHT22;24016;52.102;11.584;2023-11-22T08:10:39;-1.30;99.90
38209;DHT22;24016;52.102;11.584;2023-11-22T08:13:05;-1.20;99.90
38209;DHT22;24016;52.102;11.584;2023-11-22T08:15:30;-1.10;99.90
38209;DHT22;24016;52.102;11.584;2023-11-22T08:18:00;-1.00;99.90
38209;DHT22;24016;52.102;11.584;2023-11-22T08:20:26;-0.90;99.90
38209;DHT22;24016;52.102;11.584;2023-11-22T08:22:51;-0.80;99.90
38209;DHT22;24016;52.102;11.584;2023-11-22T08:25:17;-0.70;99.90
38209;DHT22;24016;52.102;11.584;2023-11-22T08:27:43;-0.60;99.90
38209;DHT22;24016;52.102;11.584;2023-11-22T08:30:10;-0.60;99.90
38209;DHT22;24016;52.102;11.584;2023-11-22T08:32:44;-0.70;99.90
38209;DHT22;24016;52.102;11.584;2023-11-22T08:35:12;-0.70;99.90
38209;DHT22;24016;52.102;11.584;2023-11-22T08:37:40;-0.70;99.90
38209;DHT22;24016;52.102;11.584;2023-11-22T08:40:10;-0.70;99.90
38209;DHT22;24016;52.102;11.584;2023-11-22T08:42:46;-0.60;99.90
38209;DHT22;24016;52.102;11.584;2023-11-22T08:45:12;-0.60;99.90
38209;DHT22;24016;52.102;11.584;2023-11-22T08:47:39;-0.50;99.90
38209;DHT22;24016;52.102;11.584;2023-11-22T08:50:07;-0.40;99.90
38209;DHT22;24016;52.102;11.584;2023-11-22T08:52:36;-0.50;99.90
38209;DHT22;24016;52.102;11.584;2023-11-22T08:55:02;-0.50;99.90
38209;DHT22;24016;52.102;11.584;2023-11-22T08:57:28;-0.50;99.90
38209;DHT22;24016;52.102;11.584;2023-11-22T08:59:53;-0.50;99.90
38209;DHT22;24016;52.102;11.584;2023-11-22T09:02:19;-0.40;99.90
38209;DHT22;24016;52.102;11.584;2023-11-22T09:04:48;-0.30;99.90
38209;DHT22;24016;52.102;11.584;2023-11-22T09:07:13;-0.20;99.90
38209;DHT22;24016;52.102;11.584;2023-11-22T09:09:42;-0.20;99.90
38209;DHT22;24016;52.102;11.584;2023-11-22T09:12:08;-0.10;99.90
38209;DHT22;24016;52.102;11.584;2023-11-22T09:14:41;-0.10;99.90
38209;DHT22;24016;52.102;11.584;2023-11-22T09:17:08;0.00;99.90
38209;DHT22;24016;52.102;11.584;2023-11-22T09:19:35;0.10;99.90
38209;DHT22;24016;52.102;11.584;2023-11-22T09:22:01;0.10;99.90
38209;DHT22;24016;52.102;11.584;2023-11-22T09:24:27;0.20;99.90
38209;DHT22;24016;52.102;11.584;2023-11-22T09:26:52;0.40;99.90
38209;DHT22;24016;52.102;11.584;2023-11-22T09:29:18;0.50;99.90
38209;DHT22;24016;52.102;11.584;2023-11-22T09:31:44;0.60;99.90
38209;DHT22;24016;52.102;11.584;2023-11-22T09:34:13;0.90;99.90
38209;DHT22;24016;52.102;11.584;2023-11-22T09:36:39;0.90;99.90
38209;DHT22;24016;52.102;11.584;2023-11-22T09:39:05;0.90;99.90
38209;DHT22;24016;52.102;11.584;2023-11-22T09:41:34;0.90;99.90
38209;DHT22;24016;52.102;11.584;2023-11-22T09:44:00;1.10;99.90
38209;DHT22;24016;52.102;11.584;2023-11-22T09:46:27;1.20;99.90
38209;DHT22;24016;52.102;11.584;2023-11-22T09:48:53;1.20;99.90
38209;DHT22;24016;52.102;11.584;2023-11-22T09:51:24;1.30;99.90
38209;DHT22;24016;52.102;11.584;2023-11-22T09:53:56;1.80;99.90
38209;DHT22;24016;52.102;11.584;2023-11-22T09:56:24;1.90;99.90
38209;DHT22;24016;52.102;11.584;2023-11-22T09:58:57;1.90;99.90
38209;DHT22;24016;52.102;11.584;2023-11-22T10:01:26;2.00;99.90
38209;DHT22;24016;52.102;11.584;2023-11-22T10:03:54;1.90;99.90
38209;DHT22;24016;52.102;11.584;2023-11-22T10:06:20;2.30;99.90
38209;DHT22;24016;52.102;11.584;2023-11-22T10:08:46;2.60;99.90
38209;DHT22;24016;52.102;11.584;2023-11-22T10:11:15;2.70;99.90
38209;DHT22;24016;52.102;11.584;2023-11-22T10:13:43;2.50;99.90
38209;DHT22;24016;52.102;11.584;2023-11-22T10:16:12;2.40;99.90
38209;DHT22;24016;52.102;11.584;2023-11-22T10:18:48;2.20;99.90
38209;DHT22;24016;52.102;11.584;2023-11-22T10:21:24;2.10;99.90
38209;DHT22;24016;52.102;11.584;2023-11-22T10:23:50;2.30;99.90
38209;DHT22;24016;52.102;11.584;2023-11-22T10:26:18;2.70;99.90
38209;DHT22;24016;52.102;11.584;2023-11-22T10:28:44;3.00;99.90
38209;DHT22;24016;52.102;11.584;2023-11-22T10:31:10;2.80;99.90
38209;DHT22;24016;52.102;11.584;2023-11-22T10:33:54;2.40;99.90
38209;DHT22;24016;52.102;11.584;2023-11-22T10:36:22;2.60;99.90
38209;DHT22;24016;52.102;11.584;2023-11-22T10:38:48;2.70;99.90
38209;DHT22;24016;52.102;11.584;2023-11-22T10:41:14;2.70;99.90
38209;DHT22;24016;52.102;11.584;2023-11-22T10:43:40;2.50;99.90
38209;DHT22;24016;52.102;11.584;2023-11-22T10:46:07;2.30;99.90
38209;DHT22;24016;52.102;11.584;2023-11-22T10:48:35;2.40;99.90
38209;DHT22;24016;52.102;11.584;2023-11-22T10:51:03;2.70;99.90
38209;DHT22;24016;52.102;11.584;2023-11-22T10:53:37;2.90;99.90
38209;DHT22;24016;52.102;11.584;2023-11-22T10:56:19;2.90;99.90
38209;DHT22;24016;52.102;11.584;2023-11-22T11:01:11;3.00;99.90
38209;DHT22;24016;52.102;11.584;2023-11-22T11:03:40;3.10;99.90
38209;DHT22;24016;52.102;11.584;2023-11-22T11:06:08;3.00;99.90
38209;DHT22;24016;52.102;11.584;2023-11-22T11:08:38;2.50;99.90
38209;DHT22;24016;52.102;11.584;2023-11-22T11:11:04;2.50;99.90
38209;DHT22;24016;52.102;11.584;2023-11-22T11:13:31;2.30;99.90
38209;DHT22;24016;52.102;11.584;2023-11-22T11:15:58;2.40;99.90
38209;DHT22;24016;52.102;11.584;2023-11-22T11:18:24;2.70;99.90
38209;DHT22;24016;52.102;11.584;2023-11-22T11:20:57;2.70;99.90
38209;DHT22;24016;52.102;11.584;2023-11-22T11:23:28;3.30;99.90
38209;DHT22;24016;52.102;11.584;2023-11-22T11:25:58;3.50;99.90
38209;DHT22;24016;52.102;11.584;2023-11-22T11:28:25;4.90;99.90
38209;DHT22;24016;52.102;11.584;2023-11-22T11:30:52;4.90;99.90
38209;DHT22;24016;52.102;11.584;2023-11-22T11:33:32;4.30;99.90
38209;DHT22;24016;52.102;11.584;2023-11-22T11:35:58;3.80;99.90
38209;DHT22;24016;52.102;11.584;2023-11-22T11:38:34;4.20;99.90
38209;DHT22;24016;52.102;11.584;2023-11-22T11:41:09;4.60;99.90
38209;DHT22;24016;52.102;11.584;2023-11-22T11:43:48;4.70;99.90
38209;DHT22;24016;52.102;11.584;2023-11-22T11:46:15;4.40;99.90
38209;DHT22;24016;52.102;11.584;2023-11-22T11:48:48;4.80;99.90
38209;DHT22;24016;52.102;11.584;2023-11-22T11:51:15;5.20;99.90
38209;DHT22;24016;52.102;11.584;2023-11-22T11:53:41;6.20;99.90
38209;DHT22;24016;52.102;11.584;2023-11-22T11:56:07;5.80;99.90
38209;DHT22;24016;52.102;11.584;2023-11-22T11:58:34;5.10;99.90
38209;DHT22;24016;52.102;11.584;2023-11-22T12:01:00;4.40;99.90
38209;DHT22;24016;52.102;11.584;2023-11-22T12:03:26;4.50;99.90
38209;DHT22;24016;52.102;11.584;2023-11-22T12:05:51;4.50;99.90
38209;DHT22;24016;52.102;11.584;2023-11-22T12:08:17;4.10;99.90
38209;DHT22;24016;52.102;11.584;2023-11-22T12:10:44;3.80;99.90
38209;DHT22;24016;52.102;11.584;2023-11-22T12:13:17;3.60;99.90
38209;DHT22;24016;52.102;11.584;2023-11-22T12:15:43;3.40;99.90
38209;DHT22;24016;52.102;11.584;2023-11-22T12:18:09;3.30;99.90
38209;DHT22;24016;52.102;11.584;2023-11-22T12:20:34;3.20;99.90
38209;DHT22;24016;52.102;11.584;2023-11-22T12:23:01;3.30;99.90
38209;DHT22;24016;52.102;11.584;2023-11-22T12:25:27;3.00;99.90
38209;DHT22;24016;52.102;11.584;2023-11-22T12:27:56;2.70;99.90
38209;DHT22;24016;52.102;11.584;2023-11-22T12:30:35;2.70;99.90
38209;DHT22;24016;52.102;11.584;2023-11-22T12:33:10;2.80;99.90
38209;DHT22;24016;52.102;11.584;2023-11-22T12:35:42;2.80;99.90
38209;DHT22;24016;52.102;11.584;2023-11-22T12:38:09;2.60;99.90
38209;DHT22;24016;52.102;11.584;2023-11-22T12:40:35;2.60;99.90
38209;DHT22;24016;52.102;11.584;2023-11-22T12:43:02;2.70;99.90
38209;DHT22;24016;52.102;11.584;2023-11-22T12:45:29;2.70;99.90
38209;DHT22;24016;52.102;11.584;2023-11-22T12:47:56;2.80;99.90
38209;DHT22;24016;52.102;11.584;2023-11-22T12:50:35;3.00;99.90
38209;DHT22;24016;52.102;11.584;2023-11-22T12:53:11;2.70;99.90
38209;DHT22;24016;52.102;11.584;2023-11-22T12:55:48;2.30;99.90
38209;DHT22;24016;52.102;11.584;2023-11-22T12:58:21;2.20;99.90
38209;DHT22;24016;52.102;11.584;2023-11-22T13:00:49;2.10;99.90
38209;DHT22;24016;52.102;11.584;2023-11-22T13:03:14;1.90;99.90
38209;DHT22;24016;52.102;11.584;2023-11-22T13:05:44;2.00;99.90
38209;DHT22;24016;52.102;11.584;2023-11-22T13:08:12;1.90;99.90
38209;DHT22;24016;52.102;11.584;2023-11-22T13:10:45;1.90;99.90
38209;DHT22;24016;52.102;11.584;2023-11-22T13:13:12;1.70;99.90
38209;DHT22;24016;52.102;11.584;2023-11-22T13:15:38;1.70;99.90
38209;DHT22;24016;52.102;11.584;2023-11-22T13:18:06;1.70;99.90
38209;DHT22;24016;52.102;11.584;2023-11-22T13:20:34;1.60;99.90
38209;DHT22;24016;52.102;11.584;2023-11-22T13:23:01;1.70;99.90
38209;DHT22;24016;52.102;11.584;2023-11-22T13:25:28;1.50;99.90
38209;DHT22;24016;52.102;11.584;2023-11-22T13:27:54;1.40;99.90
38209;DHT22;24016;52.102;11.584;2023-11-22T13:30:22;1.20;99.90
38209;DHT22;24016;52.102;11.584;2023-11-22T13:32:49;1.10;99.90
38209;DHT22;24016;52.102;11.584;2023-11-22T13:35:15;1.00;99.90
38209;DHT22;24016;52.102;11.584;2023-11-22T13:37:43;0.90;99.90
38209;DHT22;24016;52.102;11.584;2023-11-22T13:40:10;0.90;99.90
38209;DHT22;24016;52.102;11.584;2023-11-22T13:42:49;1.00;99.90
38209;DHT22;24016;52.102;11.584;2023-11-22T13:45:16;0.90;99.90
38209;DHT22;24016;52.102;11.584;2023-11-22T13:47:44;0.80;99.90
38209;DHT22;24016;52.102;11.584;2023-11-22T13:50:16;0.80;99.90
38209;DHT22;24016;52.102;11.584;2023-11-22T13:52:54;0.80;99.90
38209;DHT22;24016;52.102;11.584;2023-11-22T13:55:21;0.80;99.90
38209;DHT22;24016;52.102;11.584;2023-11-22T14:00:16;0.80;99.90
38209;DHT22;24016;52.102;11.584;2023-11-22T14:02:48;0.70;99.90
38209;DHT22;24016;52.102;11.584;2023-11-22T14:05:15;0.70;99.90
38209;DHT22;24016;52.102;11.584;2023-11-22T14:07:42;0.70;99.90
38209;DHT22;24016;52.102;11.584;2023-11-22T14:10:10;0.50;99.90
38209;DHT22;24016;52.102;11.584;2023-11-22T14:12:36;0.50;99.90
38209;DHT22;24016;52.102;11.584;2023-11-22T14:15:02;0.50;99.90
38209;DHT22;24016;52.102;11.584;2023-11-22T14:17:31;0.40;99.90
38209;DHT22;24016;52.102;11.584;2023-11-22T14:19:57;0.40;99.90
38209;DHT22;24016;52.102;11.584;2023-11-22T14:22:23;0.40;99.90
38209;DHT22;24016;52.102;11.584;2023-11-22T14:24:50;0.40;99.90
38209;DHT22;24016;52.102;11.584;2023-11-22T14:27:16;0.40;99.90
38209;DHT22;24016;52.102;11.584;2023-11-22T14:29:42;0.40;99.90
38209;DHT22;24016;52.102;11.584;2023-11-22T14:32:09;0.40;99.90
38209;DHT22;24016;52.102;11.584;2023-11-22T14:34:35;0.40;99.90
38209;DHT22;24016;52.102;11.584;2023-11-22T14:37:00;0.40;99.90
38209;DHT22;24016;52.102;11.584;2023-11-22T14:39:26;0.40;99.90
38209;DHT22;24016;52.102;11.584;2023-11-22T14:41:54;0.40;99.90
38209;DHT22;24016;52.102;11.584;2023-11-22T14:44:21;0.30;99.90
38209;DHT22;24016;52.102;11.584;2023-11-22T14:46:46;0.30;99.90
38209;DHT22;24016;52.102;11.584;2023-11-22T14:49:13;0.30;99.90
38209;DHT22;24016;52.102;11.584;2023-11-22T14:51:39;0.20;99.90
38209;DHT22;24016;52.102;11.584;2023-11-22T14:54:05;0.20;99.90
38209;DHT22;24016;52.102;11.584;2023-11-22T14:56:32;0.20;99.90
38209;DHT22;24016;52.102;11.584;2023-11-22T14:58:57;0.20;99.90
38209;DHT22;24016;52.102;11.584;2023-11-22T15:01:25;0.20;99.90
38209;DHT22;24016;52.102;11.584;2023-11-22T15:03:51;0.10;99.90
38209;DHT22;24016;52.102;11.584;2023-11-22T15:06:19;0.10;99.90
38209;DHT22;24016;52.102;11.584;2023-11-22T15:08:45;0.10;99.90
38209;DHT22;24016;52.102;11.584;2023-11-22T15:11:11;0.10;99.90
38209;DHT22;24016;52.102;11.584;2023-11-22T15:13:37;0.00;99.90
38209;DHT22;24016;52.102;11.584;2023-11-22T15:16:03;0.00;99.90
38209;DHT22;24016;52.102;11.584;2023-11-22T15:18:28;0.00;99.90
38209;DHT22;24016;52.102;11.584;2023-11-22T15:20:56;-0.10;99.90
38209;DHT22;24016;52.102;11.584;2023-11-22T15:23:21;-0.10;99.90
38209;DHT22;24016;52.102;11.584;2023-11-22T15:25:47;-0.20;99.90
38209;DHT22;24016;52.102;11.584;2023-11-22T15:28:13;-0.10;99.90
38209;DHT22;24016;52.102;11.584;2023-11-22T15:30:47;-0.10;99.90